sensor_id;sensor_type;location;lat;lon;timestamp;P1;durP1;ratioP1;P2;durP2;ratioP2
7529;SDS011;3806;52.270;10.544;2024-01-10T00:01:50;11.23;;;5.15;;
7529;SDS011;3806;52.270;10.544;2024-01-10T00:04:15;12.65;;;6.05;;
7529;SDS011;3806;52.270;10.544;2024-01-10T00:06:41;11.98;;;5.53;;
7529;SDS011;3806;52.270;10.544;2024-01-10T00:09:07;13.27;;;6.10;;
7529;SDS011;3806;52.270;10.544;2024-01-10T00:11:33;10.98;;;5.65;;
7529;SDS011;3806;52.270;10.544;2024-01-10T00:13:59;8.75;;;5.10;;
7529;SDS011;3806;52.270;10.544;2024-01-10T00:16:27;12.55;;;6.25;;
7529;SDS011;3806;52.270;10.544;2024-01-10T00:18:53;14.10;;;5.78;;
7529;SDS011;3806;52.270;10.544;2024-01-10T00:21:19;11.38;;;6.32;;
7529;SDS011;3806;52.270;10.544;2024-01-10T00:23:44;14.40;;;7.03;;
7529;SDS011;3806;52.270;10.544;2024-01-10T00:26:10;11.10;;;5.50;;
7529;SDS011;3806;52.270;10.544;2024-01-10T00:28:35;10.25;;;5.95;;
7529;SDS011;3806;52.270;10.544;2024-01-10T00:31:01;13.15;;;6.82;;
7529;SDS011;3806;52.270;10.544;2024-01-10T00:33:26;9.40;;;5.78;;
7529;SDS011;3806;52.270;10.544;2024-01-10T00:35:52;12.45;;;5.72;;
7529;SDS011;3806;52.270;10.544;2024-01-10T00:38:17;12.95;;;5.85;;
7529;SDS011;3806;52.270;10.544;2024-01-10T00:40:43;14.40;;;6.15;;
7529;SDS011;3806;52.270;10.544;2024-01-10T00:43:08;11.13;;;5.93;;
7529;SDS011;3806;52.270;10.544;2024-01-10T00:45:34;11.88;;;6.13;;
7529;SDS011;3806;52.270;10.544;2024-01-10T00:47:59;15.80;;;6.57;;
7529;SDS011;3806;52.270;10.544;2024-01-10T00:50:25;10.23;;;6.03;;
7529;SDS011;3806;52.270;10.544;2024-01-10T00:52:50;9.60;;;5.80;;
7529;SDS011;3806;52.270;10.544;2024-01-10T00:55:16;10.52;;;5.63;;
7529;SDS011;3806;52.270;10.544;2024-01-10T00:57:41;12.57;;;5.30;;
7529;SDS011;3806;52.270;10.544;2024-01-10T01:00:07;10.77;;;5.63;;
7529;SDS011;3806;52.270;10.544;2024-01-10T01:02:34;11.50;;;5.20;;
7529;SDS011;3806;52.270;10.544;2024-01-10T01:05:00;11.75;;;6.00;;
7529;SDS011;3806;52.270;10.544;2024-01-10T01:07:26;9.80;;;6.10;;
7529;SDS011;3806;52.270;10.544;2024-01-10T01:09:51;13.45;;;6.03;;
7529;SDS011;3806;52.270;10.544;2024-01-10T01:12:17;8.43;;;5.35;;
7529;SDS011;3806;52.270;10.544;2024-01-10T01:14:42;11.93;;;5.75;;
7529;SDS011;3806;52.270;10.544;2024-01-10T01:17:08;12.65;;;6.03;;
7529;SDS011;3806;52.270;10.544;2024-01-10T01:19:34;11.35;;;6.38;;
7529;SDS011;3806;52.270;10.544;2024-01-10T01:21:59;12.77;;;6.93;;
7529;SDS011;3806;52.270;10.544;2024-01-10T01:24:25;14.73;;;6.30;;
7529;SDS011;3806;52.270;10.544;2024-01-10T01:26:50;12.95;;;6.25;;
7529;SDS011;3806;52.270;10.544;2024-01-10T01:29:16;12.10;;;5.72;;
7529;SDS011;3806;52.270;10.544;2024-01-10T01:31:41;13.20;;;5.40;;
7529;SDS011;3806;52.270;10.544;2024-01-10T01:34:07;12.23;;;6.93;;
7529;SDS011;3806;52.270;10.544;2024-01-10T01:36:32;15.75;;;6.80;;
7529;SDS011;3806;52.270;10.544;2024-01-10T01:38:59;14.60;;;7.05;;
7529;SDS011;3806;52.270;10.544;2024-01-10T01:41:24;9.18;;;5.55;;
7529;SDS011;3806;52.270;10.544;2024-01-10T01:43:50;15.77;;;6.72;;
7529;SDS011;3806;52.270;10.544;2024-01-10T01:46:15;17.15;;;6.70;;
7529;SDS011;3806;52.270;10.544;2024-01-10T01:48:41;10.65;;;6.50;;
7529;SDS011;3806;52.270;10.544;2024-01-10T01:51:07;12.18;;;6.22;;
7529;SDS011;3806;52.270;10.544;2024-01-10T01:53:34;10.23;;;5.88;;
7529;SDS011;3806;52.270;10.544;2024-01-10T01:56:02;14.90;;;5.80;;
7529;SDS011;3806;52.270;10.544;2024-01-10T01:58:29;12.15;;;6.70;;
7529;SDS011;3806;52.270;10.544;2024-01-10T02:00:55;12.68;;;5.35;;
7529;SDS011;3806;52.270;10.544;2024-01-10T02:03:20;12.45;;;5.88;;
7529;SDS011;3806;52.270;10.544;2024-01-10T02:05:46;11.85;;;6.28;;
7529;SDS011;3806;52.270;10.544;2024-01-10T02:08:12;12.85;;;6.97;;
7529;SDS011;3806;52.270;10.544;2024-01-10T02:10:38;13.93;;;6.80;;
7529;SDS011;3806;52.270;10.544;2024-01-10T02:13:05;11.32;;;5.97;;
7529;SDS011;3806;52.270;10.544;2024-01-10T02:15:31;12.77;;;7.07;;
7529;SDS011;3806;52.270;10.544;2024-01-10T02:17:56;15.88;;;7.28;;
7529;SDS011;3806;52.270;10.544;2024-01-10T02:20:22;12.07;;;6.40;;
7529;SDS011;3806;52.270;10.544;2024-01-10T02:22:47;15.52;;;5.97;;
7529;SDS011;3806;52.270;10.544;2024-01-10T02:25:15;10.43;;;6.53;;
7529;SDS011;3806;52.270;10.544;2024-01-10T02:27:40;12.88;;;7.25;;
7529;SDS011;3806;52.270;10.544;2024-01-10T02:30:07;13.35;;;5.72;;
7529;SDS011;3806;52.270;10.544;2024-01-10T02:32:33;12.70;;;6.13;;
7529;SDS011;3806;52.270;10.544;2024-01-10T02:35:00;12.38;;;6.65;;
7529;SDS011;3806;52.270;10.544;2024-01-10T02:37:25;11.00;;;6.88;;
7529;SDS011;3806;52.270;10.544;2024-01-10T02:39:51;14.48;;;6.68;;
7529;SDS011;3806;52.270;10.544;2024-01-10T02:42:16;11.55;;;5.95;;
7529;SDS011;3806;52.270;10.544;2024-01-10T02:44:42;19.08;;;6.05;;
7529;SDS011;3806;52.270;10.544;2024-01-10T02:47:08;15.77;;;7.47;;
7529;SDS011;3806;52.270;10.544;2024-01-10T02:49:35;13.07;;;6.63;;
7529;SDS011;3806;52.270;10.544;2024-01-10T02:52:00;13.50;;;7.10;;
7529;SDS011;3806;52.270;10.544;2024-01-10T02:54:26;11.70;;;6.30;;
7529;SDS011;3806;52.270;10.544;2024-01-10T02:56:51;10.20;;;7.28;;
7529;SDS011;3806;52.270;10.544;2024-01-10T02:59:17;13.43;;;6.53;;
7529;SDS011;3806;52.270;10.544;2024-01-10T03:01:43;16.95;;;8.10;;
7529;SDS011;3806;52.270;10.544;2024-01-10T03:04:08;13.00;;;7.07;;
7529;SDS011;3806;52.270;10.544;2024-01-10T03:06:34;18.73;;;8.25;;
7529;SDS011;3806;52.270;10.544;2024-01-10T03:08:59;21.48;;;7.30;;
7529;SDS011;3806;52.270;10.544;2024-01-10T03:11:25;15.38;;;6.55;;
7529;SDS011;3806;52.270;10.544;2024-01-10T03:13:51;13.90;;;8.93;;
7529;SDS011;3806;52.270;10.544;2024-01-10T03:16:25;20.33;;;7.63;;
7529;SDS011;3806;52.270;10.544;2024-01-10T03:18:51;14.32;;;6.88;;
7529;SDS011;3806;52.270;10.544;2024-01-10T03:21:17;16.08;;;7.57;;
7529;SDS011;3806;52.270;10.544;2024-01-10T03:23:49;17.02;;;8.48;;
7529;SDS011;3806;52.270;10.544;2024-01-10T03:26:15;20.20;;;9.27;;
7529;SDS011;3806;52.270;10.544;2024-01-10T03:28:40;14.30;;;7.32;;
7529;SDS011;3806;52.270;10.544;2024-01-10T03:31:06;15.90;;;8.02;;
7529;SDS011;3806;52.270;10.544;2024-01-10T03:33:32;14.43;;;7.20;;
7529;SDS011;3806;52.270;10.544;2024-01-10T03:35:57;15.77;;;7.75;;
7529;SDS011;3806;52.270;10.544;2024-01-10T03:38:23;20.35;;;9.48;;
7529;SDS011;3806;52.270;10.544;2024-01-10T03:40:48;12.13;;;7.22;;
7529;SDS011;3806;52.270;10.544;2024-01-10T03:43:14;19.38;;;7.50;;
7529;SDS011;3806;52.270;10.544;2024-01-10T03:45:41;15.68;;;8.02;;
7529;SDS011;3806;52.270;10.544;2024-01-10T03:48:07;18.42;;;8.30;;
7529;SDS011;3806;52.270;10.544;2024-01-10T03:50:32;15.18;;;9.15;;
7529;SDS011;3806;52.270;10.544;2024-01-10T03:52:58;19.45;;;9.35;;
7529;SDS011;3806;52.270;10.544;2024-01-10T03:55:23;17.73;;;8.70;;
7529;SDS011;3806;52.270;10.544;2024-01-10T03:57:49;24.48;;;9.13;;
7529;SDS011;3806;52.270;10.544;2024-01-10T04:00:14;13.90;;;8.70;;
7529;SDS011;3806;52.270;10.544;2024-01-10T04:02:40;12.55;;;7.20;;
7529;SDS011;3806;52.270;10.544;2024-01-10T04:05:06;21.73;;;10.48;;
7529;SDS011;3806;52.270;10.544;2024-01-10T04:07:36;15.65;;;7.75;;
7529;SDS011;3806;52.270;10.544;2024-01-10T04:10:04;20.42;;;9.75;;
7529;SDS011;3806;52.270;10.544;2024-01-10T04:12:32;20.27;;;8.68;;
7529;SDS011;3806;52.270;10.544;2024-01-10T04:14:57;21.17;;;8.98;;
7529;SDS011;3806;52.270;10.544;2024-01-10T04:17:23;17.75;;;8.63;;
7529;SDS011;3806;52.270;10.544;2024-01-10T04:19:48;18.88;;;8.57;;
7529;SDS011;3806;52.270;10.544;2024-01-10T04:22:14;14.65;;;8.15;;
7529;SDS011;3806;52.270;10.544;2024-01-10T04:24:39;13.88;;;8.55;;
7529;SDS011;3806;52.270;10.544;2024-01-10T04:27:05;17.30;;;8.88;;
7529;SDS011;3806;52.270;10.544;2024-01-10T04:29:30;20.70;;;8.73;;
7529;SDS011;3806;52.270;10.544;2024-01-10T04:31:56;18.25;;;9.32;;
7529;SDS011;3806;52.270;10.544;2024-01-10T04:34:21;17.77;;;9.10;;
7529;SDS011;3806;52.270;10.544;2024-01-10T04:36:48;11.82;;;8.55;;
7529;SDS011;3806;52.270;10.544;2024-01-10T04:39:14;18.88;;;9.80;;
7529;SDS011;3806;52.270;10.544;2024-01-10T04:41:39;19.85;;;10.73;;
7529;SDS011;3806;52.270;10.544;2024-01-10T04:44:04;20.75;;;9.15;;
7529;SDS011;3806;52.270;10.544;2024-01-10T04:46:30;15.32;;;9.02;;
7529;SDS011;3806;52.270;10.544;2024-01-10T04:48:55;16.73;;;8.20;;
7529;SDS011;3806;52.270;10.544;2024-01-10T04:51:21;14.43;;;8.18;;
7529;SDS011;3806;52.270;10.544;2024-01-10T04:53:47;17.17;;;9.32;;
7529;SDS011;3806;52.270;10.544;2024-01-10T04:56:12;19.77;;;8.57;;
7529;SDS011;3806;52.270;10.544;2024-01-10T04:58:38;21.73;;;10.07;;
7529;SDS011;3806;52.270;10.544;2024-01-10T05:01:03;14.50;;;8.52;;
7529;SDS011;3806;52.270;10.544;2024-01-10T05:03:29;24.15;;;10.20;;
7529;SDS011;3806;52.270;10.544;2024-01-10T05:05:54;18.40;;;10.05;;
7529;SDS011;3806;52.270;10.544;2024-01-10T05:08:20;18.88;;;8.15;;
7529;SDS011;3806;52.270;10.544;2024-01-10T05:10:45;20.65;;;8.40;;
7529;SDS011;3806;52.270;10.544;2024-01-10T05:13:12;12.05;;;7.65;;
7529;SDS011;3806;52.270;10.544;2024-01-10T05:15:37;16.55;;;8.10;;
7529;SDS011;3806;52.270;10.544;2024-01-10T05:18:03;17.27;;;9.63;;
7529;SDS011;3806;52.270;10.544;2024-01-10T05:20:29;16.05;;;9.50;;
7529;SDS011;3806;52.270;10.544;2024-01-10T05:22:54;17.35;;;9.60;;
7529;SDS011;3806;52.270;10.544;2024-01-10T05:25:23;22.58;;;9.35;;
7529;SDS011;3806;52.270;10.544;2024-01-10T05:27:49;23.55;;;9.40;;
7529;SDS011;3806;52.270;10.544;2024-01-10T05:30:15;18.48;;;9.93;;
7529;SDS011;3806;52.270;10.544;2024-01-10T05:32:41;20.85;;;10.60;;
7529;SDS011;3806;52.270;10.544;2024-01-10T05:35:08;14.40;;;9.38;;
7529;SDS011;3806;52.270;10.544;2024-01-10T05:37:35;15.10;;;8.68;;
7529;SDS011;3806;52.270;10.544;2024-01-10T05:40:01;20.58;;;10.43;;
7529;SDS011;3806;52.270;10.544;2024-01-10T05:42:26;19.00;;;9.73;;
7529;SDS011;3806;52.270;10.544;2024-01-10T05:44:52;19.80;;;9.57;;
7529;SDS011;3806;52.270;10.544;2024-01-10T05:47:18;30.60;;;10.02;;
7529;SDS011;3806;52.270;10.544;2024-01-10T05:49:43;20.85;;;9.18;;
7529;SDS011;3806;52.270;10.544;2024-01-10T05:52:09;20.08;;;9.15;;
7529;SDS011;3806;52.270;10.544;2024-01-10T05:54:35;18.70;;;10.43;;
7529;SDS011;3806;52.270;10.544;2024-01-10T05:57:00;21.88;;;9.05;;
7529;SDS011;3806;52.270;10.544;2024-01-10T05:59:26;16.95;;;8.68;;
7529;SDS011;3806;52.270;10.544;2024-01-10T06:01:51;24.02;;;10.30;;
7529;SDS011;3806;52.270;10.544;2024-01-10T06:04:17;19.20;;;9.95;;
7529;SDS011;3806;52.270;10.544;2024-01-10T06:06:42;17.30;;;10.15;;
7529;SDS011;3806;52.270;10.544;2024-01-10T06:09:10;21.23;;;10.73;;
7529;SDS011;3806;52.270;10.544;2024-01-10T06:11:40;15.98;;;9.55;;
7529;SDS011;3806;52.270;10.544;2024-01-10T06:14:06;19.52;;;9.15;;
7529;SDS011;3806;52.270;10.544;2024-01-10T06:16:32;17.25;;;8.93;;
7529;SDS011;3806;52.270;10.544;2024-01-10T06:18:57;15.50;;;8.65;;
7529;SDS011;3806;52.270;10.544;2024-01-10T06:21:23;19.85;;;10.25;;
7529;SDS011;3806;52.270;10.544;2024-01-10T06:23:48;18.15;;;10.38;;
7529;SDS011;3806;52.270;10.544;2024-01-10T06:26:14;22.95;;;10.27;;
7529;SDS011;3806;52.270;10.544;2024-01-10T06:28:39;20.63;;;11.10;;
7529;SDS011;3806;52.270;10.544;2024-01-10T06:31:05;21.77;;;10.43;;
7529;SDS011;3806;52.270;10.544;2024-01-10T06:33:30;19.13;;;9.70;;
7529;SDS011;3806;52.270;10.544;2024-01-10T06:35:56;19.65;;;10.25;;
7529;SDS011;3806;52.270;10.544;2024-01-10T06:38:22;16.08;;;9.25;;
7529;SDS011;3806;52.270;10.544;2024-01-10T06:40:48;25.42;;;10.70;;
7529;SDS011;3806;52.270;10.544;2024-01-10T06:43:14;16.60;;;10.40;;
7529;SDS011;3806;52.270;10.544;2024-01-10T06:45:40;19.73;;;11.13;;
7529;SDS011;3806;52.270;10.544;2024-01-10T06:48:07;22.00;;;10.98;;
7529;SDS011;3806;52.270;10.544;2024-01-10T06:50:33;28.45;;;12.20;;
7529;SDS011;3806;52.270;10.544;2024-01-10T06:52:59;23.98;;;12.15;;
7529;SDS011;3806;52.270;10.544;2024-01-10T06:55:24;16.40;;;9.55;;
7529;SDS011;3806;52.270;10.544;2024-01-10T06:57:51;26.00;;;9.32;;
7529;SDS011;3806;52.270;10.544;2024-01-10T07:00:18;20.58;;;9.73;;
7529;SDS011;3806;52.270;10.544;2024-01-10T07:02:45;22.60;;;11.23;;
7529;SDS011;3806;52.270;10.544;2024-01-10T07:05:11;20.27;;;10.68;;
7529;SDS011;3806;52.270;10.544;2024-01-10T07:07:36;27.48;;;10.45;;
7529;SDS011;3806;52.270;10.544;2024-01-10T07:10:02;17.98;;;10.05;;
7529;SDS011;3806;52.270;10.544;2024-01-10T07:12:31;27.83;;;10.75;;
7529;SDS011;3806;52.270;10.544;2024-01-10T07:15:00;26.05;;;11.93;;
7529;SDS011;3806;52.270;10.544;2024-01-10T07:17:28;23.58;;;11.73;;
7529;SDS011;3806;52.270;10.544;2024-01-10T07:19:53;19.73;;;10.25;;
7529;SDS011;3806;52.270;10.544;2024-01-10T07:22:21;24.98;;;10.60;;
7529;SDS011;3806;52.270;10.544;2024-01-10T07:24:47;24.50;;;10.73;;
7529;SDS011;3806;52.270;10.544;2024-01-10T07:27:13;16.73;;;9.23;;
7529;SDS011;3806;52.270;10.544;2024-01-10T07:29:39;17.17;;;11.45;;
7529;SDS011;3806;52.270;10.544;2024-01-10T07:32:05;21.20;;;10.80;;
7529;SDS011;3806;52.270;10.544;2024-01-10T07:34:36;26.38;;;11.43;;
7529;SDS011;3806;52.270;10.544;2024-01-10T07:37:02;17.67;;;9.15;;
7529;SDS011;3806;52.270;10.544;2024-01-10T07:39:28;32.35;;;13.57;;
7529;SDS011;3806;52.270;10.544;2024-01-10T07:41:55;20.70;;;10.27;;
7529;SDS011;3806;52.270;10.544;2024-01-10T07:44:20;22.40;;;11.18;;
7529;SDS011;3806;52.270;10.544;2024-01-10T07:46:46;21.00;;;11.50;;
7529;SDS011;3806;52.270;10.544;2024-01-10T07:49:11;22.70;;;10.40;;
7529;SDS011;3806;52.270;10.544;2024-01-10T07:51:36;23.73;;;12.27;;
7529;SDS011;3806;52.270;10.544;2024-01-10T07:54:02;23.05;;;12.07;;
7529;SDS011;3806;52.270;10.544;2024-01-10T07:56:28;19.90;;;10.05;;
7529;SDS011;3806;52.270;10.544;2024-01-10T07:58:55;21.73;;;11.10;;
7529;SDS011;3806;52.270;10.544;2024-01-10T08:01:20;18.40;;;11.60;;
7529;SDS011;3806;52.270;10.544;2024-01-10T08:03:46;21.67;;;12.60;;
7529;SDS011;3806;52.270;10.544;2024-01-10T08:06:12;24.58;;;10.25;;
7529;SDS011;3806;52.270;10.544;2024-01-10T08:08:38;20.63;;;11.77;;
7529;SDS011;3806;52.270;10.544;2024-01-10T08:11:04;26.02;;;12.23;;
7529;SDS011;3806;52.270;10.544;2024-01-10T08:13:30;23.55;;;13.10;;
7529;SDS011;3806;52.270;10.544;2024-01-10T08:15:56;29.30;;;11.93;;
7529;SDS011;3806;52.270;10.544;2024-01-10T08:18:21;19.83;;;11.00;;
7529;SDS011;3806;52.270;10.544;2024-01-10T08:20:47;19.88;;;12.18;;
7529;SDS011;3806;52.270;10.544;2024-01-10T08:23:13;25.88;;;11.98;;
7529;SDS011;3806;52.270;10.544;2024-01-10T08:25:39;20.30;;;10.88;;
7529;SDS011;3806;52.270;10.544;2024-01-10T08:28:05;25.42;;;11.27;;
7529;SDS011;3806;52.270;10.544;2024-01-10T08:30:31;29.85;;;14.35;;
7529;SDS011;3806;52.270;10.544;2024-01-10T08:32:57;24.48;;;12.23;;
7529;SDS011;3806;52.270;10.544;2024-01-10T08:35:24;26.38;;;13.38;;
7529;SDS011;3806;52.270;10.544;2024-01-10T08:37:49;27.73;;;11.90;;
7529;SDS011;3806;52.270;10.544;2024-01-10T08:40:15;23.40;;;12.13;;
7529;SDS011;3806;52.270;10.544;2024-01-10T08:42:42;27.50;;;13.32;;
7529;SDS011;3806;52.270;10.544;2024-01-10T08:45:07;25.75;;;12.98;;
7529;SDS011;3806;52.270;10.544;2024-01-10T08:47:37;29.77;;;13.70;;
7529;SDS011;3806;52.270;10.544;2024-01-10T08:50:03;23.67;;;13.98;;
7529;SDS011;3806;52.270;10.544;2024-01-10T08:52:33;29.95;;;14.40;;
7529;SDS011;3806;52.270;10.544;2024-01-10T08:55:00;29.55;;;14.25;;
7529;SDS011;3806;52.270;10.544;2024-01-10T08:57:26;31.73;;;15.18;;
7529;SDS011;3806;52.270;10.544;2024-01-10T08:59:52;28.98;;;13.98;;
7529;SDS011;3806;52.270;10.544;2024-01-10T09:02:18;28.10;;;14.95;;
7529;SDS011;3806;52.270;10.544;2024-01-10T09:04:44;27.50;;;15.68;;
7529;SDS011;3806;52.270;10.544;2024-01-10T09:07:09;28.60;;;15.52;;
7529;SDS011;3806;52.270;10.544;2024-01-10T09:09:35;32.85;;;14.50;;
7529;SDS011;3806;52.270;10.544;2024-01-10T09:12:01;28.13;;;13.52;;
7529;SDS011;3806;52.270;10.544;2024-01-10T09:14:26;23.60;;;12.13;;
7529;SDS011;3806;52.270;10.544;2024-01-10T09:16:51;33.40;;;15.07;;
7529;SDS011;3806;52.270;10.544;2024-01-10T09:19:17;29.30;;;15.85;;
7529;SDS011;3806;52.270;10.544;2024-01-10T09:21:43;25.60;;;14.38;;
7529;SDS011;3806;52.270;10.544;2024-01-10T09:24:08;34.13;;;15.65;;
7529;SDS011;3806;52.270;10.544;2024-01-10T09:26:36;28.73;;;15.18;;
7529;SDS011;3806;52.270;10.544;2024-01-10T09:29:01;25.25;;;14.23;;
7529;SDS011;3806;52.270;10.544;2024-01-10T09:31:27;30.85;;;15.13;;
7529;SDS011;3806;52.270;10.544;2024-01-10T09:33:52;34.38;;;15.75;;
7529;SDS011;3806;52.270;10.544;2024-01-10T09:36:18;32.70;;;14.25;;
7529;SDS011;3806;52.270;10.544;2024-01-10T09:38:43;30.30;;;13.88;;
7529;SDS011;3806;52.270;10.544;2024-01-10T09:41:09;37.60;;;15.45;;
7529;SDS011;3806;52.270;10.544;2024-01-10T09:43:38;34.85;;;16.80;;
7529;SDS011;3806;52.270;10.544;2024-01-10T09:46:03;31.92;;;15.77;;
7529;SDS011;3806;52.270;10.544;2024-01-10T09:48:32;28.70;;;15.85;;
7529;SDS011;3806;52.270;10.544;2024-01-10T09:50:57;33.20;;;15.38;;
7529;SDS011;3806;52.270;10.544;2024-01-10T09:53:24;30.55;;;14.63;;
7529;SDS011;3806;52.270;10.544;2024-01-10T09:55:55;34.35;;;16.08;;
7529;SDS011;3806;52.270;10.544;2024-01-10T09:58:25;32.35;;;15.50;;
7529;SDS011;3806;52.270;10.544;2024-01-10T10:00:51;31.83;;;15.77;;
7529;SDS011;3806;52.270;10.544;2024-01-10T10:03:17;30.30;;;15.88;;
7529;SDS011;3806;52.270;10.544;2024-01-10T10:05:44;32.05;;;14.15;;
7529;SDS011;3806;52.270;10.544;2024-01-10T10:08:10;30.63;;;15.07;;
7529;SDS011;3806;52.270;10.544;2024-01-10T10:10:39;28.45;;;14.23;;
7529;SDS011;3806;52.270;10.544;2024-01-10T10:13:08;30.20;;;14.65;;
7529;SDS011;3806;52.270;10.544;2024-01-10T10:15:36;31.95;;;15.07;;
7529;SDS011;3806;52.270;10.544;2024-01-10T10:18:02;35.28;;;15.32;;
7529;SDS011;3806;52.270;10.544;2024-01-10T10:20:28;31.20;;;13.75;;
7529;SDS011;3806;52.270;10.544;2024-01-10T10:23:01;24.73;;;13.30;;
7529;SDS011;3806;52.270;10.544;2024-01-10T10:25:28;27.00;;;14.60;;
7529;SDS011;3806;52.270;10.544;2024-01-10T10:27:55;32.33;;;15.98;;
7529;SDS011;3806;52.270;10.544;2024-01-10T10:30:20;34.72;;;13.98;;
7529;SDS011;3806;52.270;10.544;2024-01-10T10:32:47;42.22;;;16.42;;
7529;SDS011;3806;52.270;10.544;2024-01-10T10:35:12;31.05;;;13.05;;
7529;SDS011;3806;52.270;10.544;2024-01-10T10:37:38;29.77;;;15.18;;
7529;SDS011;3806;52.270;10.544;2024-01-10T10:40:04;22.50;;;11.55;;
7529;SDS011;3806;52.270;10.544;2024-01-10T10:42:33;27.38;;;13.25;;
7529;SDS011;3806;52.270;10.544;2024-01-10T10:45:02;28.65;;;14.40;;
7529;SDS011;3806;52.270;10.544;2024-01-10T10:47:34;21.80;;;9.68;;
7529;SDS011;3806;52.270;10.544;2024-01-10T10:50:03;29.83;;;12.20;;
7529;SDS011;3806;52.270;10.544;2024-01-10T10:52:30;32.45;;;13.95;;
7529;SDS011;3806;52.270;10.544;2024-01-10T10:54:57;31.15;;;15.65;;
7529;SDS011;3806;52.270;10.544;2024-01-10T10:57:27;34.22;;;14.63;;
7529;SDS011;3806;52.270;10.544;2024-01-10T10:59:53;27.25;;;14.68;;
7529;SDS011;3806;52.270;10.544;2024-01-10T11:02:21;40.42;;;14.98;;
7529;SDS011;3806;52.270;10.544;2024-01-10T11:04:49;28.73;;;14.70;;
7529;SDS011;3806;52.270;10.544;2024-01-10T11:07:18;33.92;;;15.95;;
7529;SDS011;3806;52.270;10.544;2024-01-10T11:09:44;29.10;;;13.27;;
7529;SDS011;3806;52.270;10.544;2024-01-10T11:17:36;31.40;;;14.20;;
7529;SDS011;3806;52.270;10.544;2024-01-10T11:20:35;29.90;;;14.45;;
7529;SDS011;3806;52.270;10.544;2024-01-10T11:23:38;23.13;;;13.57;;
7529;SDS011;3806;52.270;10.544;2024-01-10T11:26:04;30.80;;;13.05;;
7529;SDS011;3806;52.270;10.544;2024-01-10T11:28:30;28.50;;;14.57;;
7529;SDS011;3806;52.270;10.544;2024-01-10T11:30:56;21.63;;;12.50;;
7529;SDS011;3806;52.270;10.544;2024-01-10T11:33:31;31.10;;;15.30;;
7529;SDS011;3806;52.270;10.544;2024-01-10T11:36:07;28.52;;;13.88;;
7529;SDS011;3806;52.270;10.544;2024-01-10T11:43:46;24.42;;;11.93;;
7529;SDS011;3806;52.270;10.544;2024-01-10T11:46:31;23.58;;;13.23;;
7529;SDS011;3806;52.270;10.544;2024-01-10T11:48:58;30.13;;;15.45;;
7529;SDS011;3806;52.270;10.544;2024-01-10T11:51:24;37.10;;;16.45;;
7529;SDS011;3806;52.270;10.544;2024-01-10T11:53:49;25.80;;;13.98;;
7529;SDS011;3806;52.270;10.544;2024-01-10T11:56:15;33.67;;;14.27;;
7529;SDS011;3806;52.270;10.544;2024-01-10T12:01:20;25.08;;;13.05;;
7529;SDS011;3806;52.270;10.544;2024-01-10T12:03:51;30.02;;;14.57;;
7529;SDS011;3806;52.270;10.544;2024-01-10T12:06:18;28.38;;;14.35;;
7529;SDS011;3806;52.270;10.544;2024-01-10T12:08:45;37.97;;;15.32;;
7529;SDS011;3806;52.270;10.544;2024-01-10T12:11:11;28.00;;;14.10;;
7529;SDS011;3806;52.270;10.544;2024-01-10T12:13:36;27.13;;;13.15;;
7529;SDS011;3806;52.270;10.544;2024-01-10T12:16:02;29.33;;;15.63;;
7529;SDS011;3806;52.270;10.544;2024-01-10T12:18:29;29.55;;;14.55;;
7529;SDS011;3806;52.270;10.544;2024-01-10T12:20:55;26.13;;;14.02;;
7529;SDS011;3806;52.270;10.544;2024-01-10T12:23:20;24.67;;;12.98;;
7529;SDS011;3806;52.270;10.544;2024-01-10T12:25:48;25.80;;;13.25;;
7529;SDS011;3806;52.270;10.544;2024-01-10T12:28:17;34.50;;;15.55;;
7529;SDS011;3806;52.270;10.544;2024-01-10T12:30:42;33.42;;;13.63;;
7529;SDS011;3806;52.270;10.544;2024-01-10T12:33:09;26.33;;;12.10;;
7529;SDS011;3806;52.270;10.544;2024-01-10T12:35:34;34.13;;;14.63;;
7529;SDS011;3806;52.270;10.544;2024-01-10T12:38:00;34.83;;;15.90;;
7529;SDS011;3806;52.270;10.544;2024-01-10T12:40:25;30.02;;;16.13;;
7529;SDS011;3806;52.270;10.544;2024-01-10T12:43:06;25.60;;;13.88;;
7529;SDS011;3806;52.270;10.544;2024-01-10T12:45:32;23.73;;;13.18;;
7529;SDS011;3806;52.270;10.544;2024-01-10T12:47:58;32.95;;;13.98;;
7529;SDS011;3806;52.270;10.544;2024-01-10T12:50:24;27.42;;;14.35;;
7529;SDS011;3806;52.270;10.544;2024-01-10T12:52:52;29.52;;;14.88;;
7529;SDS011;3806;52.270;10.544;2024-01-10T12:55:17;28.38;;;14.13;;
7529;SDS011;3806;52.270;10.544;2024-01-10T12:57:43;29.13;;;13.93;;
7529;SDS011;3806;52.270;10.544;2024-01-10T13:00:09;31.90;;;13.40;;
7529;SDS011;3806;52.270;10.544;2024-01-10T13:02:36;28.00;;;15.00;;
7529;SDS011;3806;52.270;10.544;2024-01-10T13:05:05;34.75;;;14.82;;
7529;SDS011;3806;52.270;10.544;2024-01-10T13:07:37;32.90;;;15.23;;
7529;SDS011;3806;52.270;10.544;2024-01-10T13:10:04;28.95;;;12.73;;
7529;SDS011;3806;52.270;10.544;2024-01-10T13:12:29;26.23;;;13.98;;
7529;SDS011;3806;52.270;10.544;2024-01-10T13:14:55;32.92;;;16.20;;
7529;SDS011;3806;52.270;10.544;2024-01-10T13:17:21;31.05;;;15.68;;
7529;SDS011;3806;52.270;10.544;2024-01-10T13:19:47;30.67;;;13.40;;
7529;SDS011;3806;52.270;10.544;2024-01-10T13:22:16;29.58;;;13.48;;
7529;SDS011;3806;52.270;10.544;2024-01-10T13:24:44;30.33;;;15.38;;
7529;SDS011;3806;52.270;10.544;2024-01-10T13:27:10;35.67;;;15.57;;
7529;SDS011;3806;52.270;10.544;2024-01-10T13:29:36;35.25;;;17.23;;
7529;SDS011;3806;52.270;10.544;2024-01-10T13:32:05;37.47;;;18.08;;
7529;SDS011;3806;52.270;10.544;2024-01-10T13:34:31;29.77;;;14.52;;
7529;SDS011;3806;52.270;10.544;2024-01-10T13:36:57;32.35;;;14.32;;
7529;SDS011;3806;52.270;10.544;2024-01-10T13:39:23;33.92;;;16.15;;
7529;SDS011;3806;52.270;10.544;2024-01-10T13:41:49;29.10;;;14.57;;
7529;SDS011;3806;52.270;10.544;2024-01-10T13:44:15;32.58;;;16.35;;
7529;SDS011;3806;52.270;10.544;2024-01-10T13:46:41;28.92;;;14.13;;
7529;SDS011;3806;52.270;10.544;2024-01-10T13:49:07;35.25;;;15.65;;
7529;SDS011;3806;52.270;10.544;2024-01-10T13:51:32;32.25;;;14.32;;
7529;SDS011;3806;52.270;10.544;2024-01-10T13:53:58;29.60;;;14.43;;
7529;SDS011;3806;52.270;10.544;2024-01-10T13:56:23;32.35;;;14.55;;
7529;SDS011;3806;52.270;10.544;2024-01-10T13:58:49;30.00;;;14.60;;
7529;SDS011;3806;52.270;10.544;2024-01-10T14:01:15;33.88;;;14.85;;
7529;SDS011;3806;52.270;10.544;2024-01-10T14:03:40;35.17;;;15.48;;
7529;SDS011;3806;52.270;10.544;2024-01-10T14:06:06;31.38;;;15.43;;
7529;SDS011;3806;52.270;10.544;2024-01-10T14:08:31;35.88;;;14.68;;
7529;SDS011;3806;52.270;10.544;2024-01-10T14:10:57;33.38;;;15.05;;
7529;SDS011;3806;52.270;10.544;2024-01-10T14:13:23;33.03;;;16.35;;
7529;SDS011;3806;52.270;10.544;2024-01-10T14:15:48;29.13;;;14.30;;
7529;SDS011;3806;52.270;10.544;2024-01-10T14:18:14;30.20;;;13.93;;
7529;SDS011;3806;52.270;10.544;2024-01-10T14:20:39;36.10;;;16.55;;
7529;SDS011;3806;52.270;10.544;2024-01-10T14:23:05;32.00;;;15.25;;
7529;SDS011;3806;52.270;10.544;2024-01-10T14:25:31;31.35;;;16.20;;
7529;SDS011;3806;52.270;10.544;2024-01-10T14:27:57;29.83;;;14.20;;
7529;SDS011;3806;52.270;10.544;2024-01-10T14:30:24;33.03;;;15.73;;
7529;SDS011;3806;52.270;10.544;2024-01-10T14:32:50;38.08;;;15.32;;
7529;SDS011;3806;52.270;10.544;2024-01-10T14:35:15;32.17;;;14.88;;
7529;SDS011;3806;52.270;10.544;2024-01-10T14:37:41;30.38;;;15.13;;
7529;SDS011;3806;52.270;10.544;2024-01-10T14:40:07;25.70;;;14.45;;
7529;SDS011;3806;52.270;10.544;2024-01-10T14:42:33;24.23;;;13.57;;
7529;SDS011;3806;52.270;10.544;2024-01-10T14:45:02;24.08;;;14.82;;
7529;SDS011;3806;52.270;10.544;2024-01-10T14:47:29;28.98;;;16.02;;
7529;SDS011;3806;52.270;10.544;2024-01-10T14:49:55;30.58;;;14.32;;